Nearby METAR Reports

 

KSJC - San Jose, California, USA
Distance from station: NE 14km
Updated: 21/07/2024 10:53
Few Clouds
Few Clouds
 Wind from calm
Wind: Calm
Temperature: 24°C
Dew Point: 13°C
Humidity: 50%
Barometer: 1014.9 hPa
Clouds: Few Clouds
Visibility: 16 km
Cloud details: Few Clouds 610 m
2024/07/21 17:53 KSJC 211753Z 00000KT 10SM FEW020 24/13 A2997 RMK AO2 SLP148 T02390133 10239 20156 58006
KNUQ - Moffett Nas/Mtn, California, USA
Distance from station: N 14km
Updated: 21/07/2024 11:15
Clear
Clear
 Wind from N
Wind: N 13 km/h
Temperature: 21°C
Dew Point: 14°C
Humidity: 64%
Barometer: 1014.9 hPa
Clouds: Clear
Visibility: 16 km
2024/07/21 18:15 KNUQ 211815Z AUTO 01007KT 10SM CLR 21/14 A2997 RMK AO2
 
KPAO - Palo Alto, California, USA
Distance from station: NNW 23km
Updated: 21/07/2024 10:47
Clear
Clear
 Wind from NNW
Wind: NNW 17 km/h
Temperature: 21°C
Dew Point: 14°C
Humidity: 64%
Barometer: 1015.2 hPa
Clouds: Clear
Visibility: 16 km
2024/07/21 17:47 KPAO 211747Z 34009KT 10SM SKC 21/14 A2998
KRHV - San Jose/Reid, California, USA
Distance from station: ENE 19km
Updated: 21/07/2024 10:49
Clear
Clear
 Wind from WNW
Wind: WNW 7 km/h
Temperature: 23°C
Dew Point: 12°C
Humidity: 50%
Barometer: 1015.2 hPa
Clouds: Clear
Visibility: 16 km
2024/07/21 17:49 KRHV 211749Z 30004KT 10SM SKC 23/12 A2998
 
KOAK - Oakland, California, USA
Distance from station: NNW 50km
Updated: 21/07/2024 10:53
Mostly cloudy
Mostly cloudy
 Wind from SW
Wind: SW 15 km/h
Temperature: 16°C
Dew Point: 14°C
Humidity: 88%
Barometer: 1015.6 hPa
Clouds: Mostly cloudy
Visibility: 14 km
Cloud details: Mostly cloudy 244 m
2024/07/21 17:53 KOAK 211753Z 23008KT 9SM BKN008 16/14 A2999 RMK AO2 SLP157 T01610139 10161 20144 50000
KSQL - San Carlos Airpo, California, USA
Distance from station: NW 34km
Updated: 21/07/2024 06:55
NOT Current
Clear
Clear
 Wind from W
Wind: W 15 km/h
Temperature: 15°C
Dew Point: 12°C
Humidity: 82%
Barometer: 1015.9 hPa
Clouds: Clear
Visibility: 13 km
2024/07/21 13:55 KSQL 211355Z AUTO 26008KT 8SM CLR 15/12 A3000 RMK AO2
 
KSFO - San Francisco, California, USA
Distance from station: NW 49km
Updated: 21/07/2024 10:56
Mostly cloudy
Mostly cloudy
 Wind from W
Wind: W 26 km/h
Temperature: 15°C
Dew Point: 12°C
Humidity: 82%
Barometer: 1015.6 hPa
Clouds: Mostly cloudy
Visibility: 16 km
Cloud details: Few Clouds 183 m
Mostly cloudy 274 m
Mostly cloudy 335 m
2024/07/21 17:56 KSFO 211756Z 26014KT 10SM FEW006 BKN009 BKN011 15/12 A2999 RMK AO2 SLP154 T01500122 10150 20133 50000 $
KE16 - San Martin, California, USA
Distance from station: ESE 43km
Updated: 21/07/2024 11:15
Clear
Clear
 Wind from SE
Wind: SE 6 km/h
Temperature: 20°C
Dew Point: 13°C
Humidity: 64%
Barometer: 1015.9 hPa
Clouds: Clear
Visibility: 16 km
2024/07/21 18:15 KE16 211815Z AUTO 14003KT 10SM CLR 20/13 A3000 RMK AO2 PWINO PNO
 
KWVI - Watsonville, California, USA
Distance from station: SSE 44km
Updated: 21/07/2024 10:53
Overcast
Overcast
 Wind from varies
Wind: varies 7 km/h
Temperature: 16°C
Dew Point: 13°C
Humidity: 83%
Barometer: 1016.6 hPa
Clouds: Overcast
Visibility: 16 km
Cloud details: Overcast 244 m
2024/07/21 17:53 KWVI 211753Z AUTO VRB04KT 10SM OVC008 16/13 A3002 RMK AO2 SLP163 T01610133 10161 20133 50001
KHAF - Half Moon Bay, California, USA
Distance from station: WNW 50km
Updated: 21/07/2024 11:35
Mist, Mostly cloudy
Mist, Mostly cloudy
 Wind from NW
Wind: NW 17 km/h, Gust: 26 km/h
Temperature: 14°C
Dew Point: 14°C
Humidity: 100%
Barometer: 1016.3 hPa
Summary: Mist
Clouds: Mostly cloudy
Visibility: 3 km
Cloud details: Mostly cloudy 122 m
2024/07/21 18:35 KHAF 211835Z AUTO 32009G14KT 2SM BR BKN004 14/14 A3001 RMK AO2
 
KHWD - Hayward, California, USA
Distance from station: N 44km
Updated: 21/07/2024 11:12
Mostly cloudy
Mostly cloudy
 Wind from WNW
Wind: WNW 17 km/h
Temperature: 17°C
Dew Point: 13°C
Humidity: 77%
Barometer: 1015.2 hPa
Clouds: Mostly cloudy
Visibility: 16 km
Cloud details: Mostly cloudy 335 m
Mostly cloudy 518 m
2024/07/21 18:12 KHWD 211812Z 29009KT 10SM BKN011 BKN017 17/13 A2998 RMK AO2 T01670128
KLVK - Livermore, California, USA
Distance from station: NNE 51km
Updated: 21/07/2024 10:53
Clear
Clear
 Wind from NW
Wind: NW 11 km/h
Temperature: 21°C
Dew Point: 13°C
Humidity: 60%
Barometer: 1014.6 hPa
Clouds: Clear
Visibility: 16 km
2024/07/21 17:53 KLVK 211753Z 32006KT 10SM CLR 21/13 A2996 RMK AO2 SLP141 T02110128 10211 20139 50000 $